Time;durP1;ratioP1;P1;durP2;ratioP2;P2;SDS_P1;SDS_P2;PMS_P1;PMS_P2;Temp;Humidity;BMP_temperature;BMP_pressure;BME280_temperature;BME280_humidity;BME280_pressure;Samples;Min_cycle;Max_cycle;Signal;HPM_P1;HPM_P2
2021/10/01 00:02:07;;;;;;;1.50;1.00;;;12.60;96.20;;;;;;5032153;28;20462;-79
2021/10/01 00:04:36;;;;;;;1.50;1.10;;;12.60;96.10;;;;;;5031681;28;20985;-77
2021/10/01 00:07:03;;;;;;;1.50;1.10;;;12.60;96.00;;;;;;5048111;28;20474;-77
2021/10/01 00:09:30;;;;;;;1.50;1.10;;;12.60;95.90;;;;;;5049737;28;20460;-77
2021/10/01 00:11:56;;;;;;;1.50;1.10;;;12.70;96.00;;;;;;5033018;28;20537;-76
2021/10/01 00:14:25;;;;;;;1.50;1.00;;;12.70;95.80;;;;;;5031063;28;20489;-77
2021/10/01 00:16:54;;;;;;;1.50;1.10;;;12.70;95.70;;;;;;5031351;28;20486;-79
2021/10/01 00:19:22;;;;;;;1.53;1.10;;;12.70;95.60;;;;;;5025794;28;20467;-78
2021/10/01 00:21:49;;;;;;;1.57;1.27;;;12.70;95.60;;;;;;5044702;28;21132;-76
2021/10/01 00:24:16;;;;;;;1.50;1.00;;;12.70;95.70;;;;;;5044460;28;20466;-78
2021/10/01 00:26:43;;;;;;;1.50;1.00;;;12.70;95.60;;;;;;5036199;28;20490;-78
2021/10/01 00:29:11;;;;;;;1.50;1.10;;;12.70;95.60;;;;;;5032801;28;20470;-76
2021/10/01 00:31:38;;;;;;;1.50;1.10;;;12.60;95.80;;;;;;5028077;28;20474;-77
2021/10/01 00:34:07;;;;;;;1.50;1.00;;;12.60;95.80;;;;;;5031384;28;20463;-79
2021/10/01 00:36:34;;;;;;;1.50;1.10;;;12.60;95.80;;;;;;5034889;28;20483;-78
2021/10/01 00:39:01;;;;;;;1.50;1.20;;;12.60;95.80;;;;;;5038115;28;20458;-78
2021/10/01 00:41:28;;;;;;;1.53;1.10;;;12.60;95.80;;;;;;5032037;28;20496;-79
2021/10/01 00:43:55;;;;;;;1.50;1.10;;;12.60;95.80;;;;;;5049732;28;20469;-78
2021/10/01 00:46:22;;;;;;;1.50;1.00;;;12.60;96.00;;;;;;5033707;28;21064;-78
2021/10/01 00:48:49;;;;;;;1.50;1.10;;;12.60;95.90;;;;;;5029713;28;20470;-78
2021/10/01 00:51:19;;;;;;;1.50;1.10;;;12.50;96.10;;;;;;5028628;28;20470;-79
2021/10/01 00:53:46;;;;;;;1.50;1.10;;;12.50;96.10;;;;;;5030698;28;20466;-78
2021/10/01 00:56:13;;;;;;;1.50;1.10;;;12.50;96.50;;;;;;5034832;28;20483;-79
2021/10/01 00:58:40;;;;;;;1.60;1.20;;;12.50;96.50;;;;;;5029243;28;20467;-78
2021/10/01 01:01:10;;;;;;;1.50;1.10;;;12.40;96.70;;;;;;5029362;28;20851;-79
2021/10/01 01:03:40;;;;;;;1.50;1.10;;;12.40;96.70;;;;;;5046640;28;20971;-79
2021/10/01 01:06:13;;;;;;;1.50;1.03;;;12.30;96.80;;;;;;5038351;28;20941;-76
2021/10/01 01:08:52;;;;;;;1.50;1.10;;;12.30;96.70;;;;;;5033665;28;20958;-76
2021/10/01 01:11:28;;;;;;;1.50;1.10;;;12.30;96.90;;;;;;5029260;28;20978;-77
2021/10/01 01:14:00;;;;;;;1.50;1.10;;;12.20;97.00;;;;;;5034298;28;20470;-78
2021/10/01 01:16:33;;;;;;;1.53;1.10;;;12.20;97.30;;;;;;5028323;28;20486;-77
2021/10/01 01:19:02;;;;;;;1.60;1.10;;;12.20;97.30;;;;;;5025475;28;20470;-77
2021/10/01 01:21:44;;;;;;;1.50;1.10;;;12.20;97.30;;;;;;5026140;28;20462;-77
2021/10/01 01:24:34;;;;;;;1.50;1.10;;;12.20;97.40;;;;;;5034913;28;20455;-78
2021/10/01 01:27:16;;;;;;;1.60;1.20;;;12.10;97.70;;;;;;5026810;28;20862;-77
2021/10/01 01:29:54;;;;;;;1.50;1.13;;;12.10;97.60;;;;;;5009933;28;20467;-77
2021/10/01 01:32:24;;;;;;;1.50;1.10;;;12.10;98.10;;;;;;5035142;28;20467;-76
2021/10/01 01:34:55;;;;;;;1.50;1.10;;;12.10;98.00;;;;;;5024915;28;20470;-77
2021/10/01 01:37:26;;;;;;;1.60;1.20;;;12.10;98.20;;;;;;5033122;28;20483;-76
2021/10/01 01:39:56;;;;;;;1.50;1.10;;;12.00;98.10;;;;;;5029315;28;20483;-77
2021/10/01 01:42:23;;;;;;;1.53;1.20;;;12.00;98.20;;;;;;5033621;28;20462;-77
2021/10/01 01:44:52;;;;;;;1.53;1.10;;;12.00;98.10;;;;;;5038006;28;20459;-77
2021/10/01 01:47:19;;;;;;;1.50;1.10;;;12.00;98.20;;;;;;5027782;28;20503;-78
2021/10/01 01:49:48;;;;;;;1.50;1.10;;;12.00;98.20;;;;;;5025300;28;20463;-79
2021/10/01 01:52:16;;;;;;;1.50;1.10;;;11.90;98.20;;;;;;5029835;28;20462;-78
2021/10/01 01:54:45;;;;;;;1.50;1.10;;;11.90;98.20;;;;;;5026757;28;20460;-78
2021/10/01 01:57:12;;;;;;;1.53;1.10;;;11.90;98.20;;;;;;5024177;28;20921;-78
2021/10/01 01:59:41;;;;;;;1.50;1.10;;;11.90;98.20;;;;;;5028038;28;20471;-79
2021/10/01 02:02:09;;;;;;;1.57;1.20;;;11.90;98.20;;;;;;5027919;28;21057;-78
2021/10/01 02:04:37;;;;;;;1.53;1.10;;;11.90;98.20;;;;;;5028201;28;20558;-78
2021/10/01 02:07:06;;;;;;;1.50;1.10;;;11.90;98.20;;;;;;5029779;28;20474;-79
2021/10/01 02:09:34;;;;;;;1.50;1.10;;;11.80;98.20;;;;;;5036747;28;20983;-78
2021/10/01 02:12:02;;;;;;;1.50;1.10;;;11.80;98.20;;;;;;5027241;28;20463;-79
2021/10/01 02:14:32;;;;;;;1.50;1.13;;;11.80;98.20;;;;;;5028726;28;20841;-78
2021/10/01 02:17:00;;;;;;;1.50;1.03;;;11.70;98.20;;;;;;5023266;28;20491;-78
2021/10/01 02:19:33;;;;;;;1.60;1.20;;;11.70;98.20;;;;;;5027558;28;20471;-78
2021/10/01 02:22:02;;;;;;;1.50;1.10;;;11.70;98.20;;;;;;5024964;28;20821;-78
2021/10/01 02:24:30;;;;;;;1.50;1.10;;;11.70;98.20;;;;;;5033320;28;20466;-78
2021/10/01 02:27:12;;;;;;;1.57;1.13;;;11.60;98.20;;;;;;5040886;28;20546;-79
2021/10/01 02:29:46;;;;;;;1.60;1.20;;;11.60;98.20;;;;;;5017886;28;20642;-78
2021/10/01 02:32:26;;;;;;;1.50;1.10;;;11.60;98.20;;;;;;5033218;28;20524;-78
2021/10/01 02:34:53;;;;;;;1.57;1.20;;;11.60;98.20;;;;;;5018538;28;20829;-79
2021/10/01 02:37:20;;;;;;;1.53;1.20;;;11.60;98.20;;;;;;5038535;28;20852;-78
2021/10/01 02:39:50;;;;;;;1.50;1.10;;;11.60;98.20;;;;;;5030138;28;20481;-79
2021/10/01 02:42:18;;;;;;;1.57;1.20;;;11.50;98.20;;;;;;5036365;28;20475;-79
2021/10/01 02:44:47;;;;;;;1.50;1.17;;;11.50;98.20;;;;;;5026703;28;20460;-78
2021/10/01 02:47:15;;;;;;;1.60;1.20;;;11.50;98.20;;;;;;5039324;28;20482;-80
2021/10/01 02:49:43;;;;;;;1.50;1.10;;;11.50;98.20;;;;;;5031170;28;20498;-77
2021/10/01 02:52:20;;;;;;;1.53;1.10;;;11.50;98.20;;;;;;5026072;28;20977;-78
2021/10/01 02:54:53;;;;;;;1.50;1.10;;;11.50;98.20;;;;;;5034261;28;20459;-77
2021/10/01 02:57:24;;;;;;;1.57;1.20;;;11.50;98.20;;;;;;5030163;28;20491;-79
2021/10/01 02:59:53;;;;;;;1.60;1.23;;;11.50;98.20;;;;;;5032776;28;20810;-79
2021/10/01 03:02:21;;;;;;;1.50;1.10;;;11.50;98.20;;;;;;5032718;28;20454;-80
2021/10/01 03:04:55;;;;;;;1.57;1.10;;;11.50;98.20;;;;;;5040499;28;20465;-79
2021/10/01 03:07:23;;;;;;;1.50;1.20;;;11.50;98.20;;;;;;5036734;28;20470;-80
2021/10/01 03:09:54;;;;;;;1.57;1.33;;;11.50;98.20;;;;;;5029876;28;20928;-77
2021/10/01 03:12:22;;;;;;;1.50;1.10;;;11.50;98.20;;;;;;5036375;28;20466;-81
2021/10/01 03:14:51;;;;;;;1.53;1.10;;;11.50;98.20;;;;;;5025174;28;20488;-78
2021/10/01 03:17:19;;;;;;;1.50;1.10;;;11.50;98.20;;;;;;5035721;28;20497;-78
2021/10/01 03:19:47;;;;;;;1.50;1.10;;;11.50;98.20;;;;;;5042553;28;20458;-77
2021/10/01 03:22:15;;;;;;;1.60;1.20;;;11.50;98.20;;;;;;5043867;28;20463;-77
2021/10/01 03:24:42;;;;;;;1.53;1.10;;;11.50;98.20;;;;;;5031746;28;21131;-79
2021/10/01 03:27:11;;;;;;;1.50;1.10;;;11.50;98.20;;;;;;5026721;28;21335;-81
2021/10/01 03:29:41;;;;;;;1.50;1.13;;;11.50;98.20;;;;;;5026193;28;20474;-78
2021/10/01 03:32:10;;;;;;;1.60;1.30;;;11.50;98.20;;;;;;5032103;28;20471;-77
2021/10/01 03:34:37;;;;;;;1.57;1.20;;;11.50;98.20;;;;;;5029869;28;20538;-77
2021/10/01 03:37:05;;;;;;;1.50;1.10;;;11.50;98.20;;;;;;5038006;28;20482;-78
2021/10/01 03:39:31;;;;;;;1.50;1.10;;;11.50;98.20;;;;;;5035982;28;20464;-77
2021/10/01 03:41:58;;;;;;;1.50;1.10;;;11.50;98.20;;;;;;5037274;28;20462;-77
2021/10/01 03:44:26;;;;;;;1.50;1.10;;;11.50;98.20;;;;;;5025466;28;20469;-77
2021/10/01 03:46:53;;;;;;;1.60;1.30;;;11.50;98.20;;;;;;5030099;28;20498;-76
2021/10/01 03:49:20;;;;;;;1.50;1.17;;;11.50;98.20;;;;;;5024076;28;20934;-76
2021/10/01 03:51:47;;;;;;;1.50;1.10;;;11.50;98.20;;;;;;5034498;28;20480;-79
2021/10/01 03:54:14;;;;;;;1.50;1.10;;;11.50;98.20;;;;;;5040864;28;20553;-79
2021/10/01 03:56:40;;;;;;;1.60;1.30;;;11.50;98.20;;;;;;5038245;28;20481;-77
2021/10/01 03:59:07;;;;;;;1.57;1.20;;;11.50;98.20;;;;;;5038717;28;20552;-80
2021/10/01 04:01:35;;;;;;;1.50;1.10;;;11.40;98.20;;;;;;5043158;28;20905;-78
2021/10/01 04:04:02;;;;;;;1.50;1.10;;;11.40;98.20;;;;;;5035743;28;20463;-77
2021/10/01 04:06:29;;;;;;;1.50;1.10;;;11.40;98.20;;;;;;5035234;28;20483;-76
2021/10/01 04:08:56;;;;;;;1.50;1.10;;;11.40;98.20;;;;;;5037134;28;20489;-77
2021/10/01 04:11:23;;;;;;;1.50;1.10;;;11.40;98.20;;;;;;5035688;28;20519;-78
2021/10/01 04:13:50;;;;;;;1.50;1.10;;;11.40;98.20;;;;;;5044847;28;20458;-76
2021/10/01 04:16:20;;;;;;;1.50;1.10;;;11.40;98.20;;;;;;5046249;28;20489;-76
2021/10/01 04:18:49;;;;;;;1.53;1.10;;;11.30;98.20;;;;;;5058166;28;20507;-76
2021/10/01 04:21:17;;;;;;;1.57;1.20;;;11.30;98.20;;;;;;5058472;28;20908;-75
2021/10/01 04:23:44;;;;;;;1.50;1.20;;;11.30;98.20;;;;;;5051457;28;20865;-77
2021/10/01 04:26:11;;;;;;;1.53;1.20;;;11.30;98.20;;;;;;5038740;28;20463;-75
2021/10/01 04:28:38;;;;;;;1.50;1.20;;;11.30;98.20;;;;;;5028281;28;20467;-79
2021/10/01 04:31:04;;;;;;;1.57;1.20;;;11.30;98.20;;;;;;5031703;28;20467;-78
2021/10/01 04:33:34;;;;;;;1.50;1.10;;;11.40;98.20;;;;;;5028455;28;20485;-79
2021/10/01 04:36:03;;;;;;;1.57;1.20;;;11.30;98.20;;;;;;5030709;28;20462;-77
2021/10/01 04:38:31;;;;;;;1.50;1.10;;;11.30;98.20;;;;;;5042179;28;20474;-77
2021/10/01 04:40:58;;;;;;;1.53;1.13;;;11.40;98.20;;;;;;5028170;28;21035;-78
2021/10/01 04:43:26;;;;;;;1.53;1.10;;;11.40;98.20;;;;;;5031203;28;20617;-77
2021/10/01 04:45:53;;;;;;;1.60;1.20;;;11.40;98.20;;;;;;5021976;28;20563;-78
2021/10/01 04:48:20;;;;;;;1.50;1.20;;;11.40;98.20;;;;;;5031523;28;20487;-77
2021/10/01 04:50:46;;;;;;;1.50;1.10;;;11.40;98.20;;;;;;5027596;28;21071;-76
2021/10/01 04:53:15;;;;;;;1.53;1.17;;;11.40;98.20;;;;;;5024880;28;20470;-82
2021/10/01 04:55:46;;;;;;;1.53;1.20;;;11.40;98.20;;;;;;5029466;28;20463;-78
2021/10/01 04:58:12;;;;;;;1.50;1.20;;;11.40;98.20;;;;;;5026478;28;20491;-81
2021/10/01 05:00:39;;;;;;;1.53;1.17;;;11.40;98.20;;;;;;5029071;28;20467;-80
2021/10/01 05:03:07;;;;;;;1.60;1.30;;;11.40;98.20;;;;;;5036817;28;20478;-78
2021/10/01 05:05:33;;;;;;;1.53;1.20;;;11.40;98.20;;;;;;5024111;28;20991;-80
2021/10/01 05:08:03;;;;;;;1.50;1.10;;;11.40;98.20;;;;;;5034182;28;20482;-80
2021/10/01 05:10:31;;;;;;;1.50;1.20;;;11.40;98.20;;;;;;5024626;28;20516;-79
2021/10/01 05:12:58;;;;;;;1.53;1.20;;;11.40;98.20;;;;;;5029256;28;20470;-78
2021/10/01 05:15:25;;;;;;;1.50;1.20;;;11.30;98.20;;;;;;5031062;28;20470;-77
2021/10/01 05:17:52;;;;;;;1.50;1.10;;;11.30;98.20;;;;;;5025301;28;20491;-77
2021/10/01 05:20:19;;;;;;;1.50;1.10;;;11.30;98.20;;;;;;5024855;28;20474;-80
2021/10/01 05:22:46;;;;;;;1.50;1.10;;;11.30;98.20;;;;;;5028596;28;20474;-78
2021/10/01 05:25:13;;;;;;;1.53;1.10;;;11.30;98.20;;;;;;5028316;28;20459;-77
2021/10/01 05:27:41;;;;;;;1.50;1.10;;;11.30;98.20;;;;;;5029161;28;20514;-77
2021/10/01 05:30:09;;;;;;;1.50;1.10;;;11.30;98.20;;;;;;5034387;28;20466;-76
2021/10/01 05:32:36;;;;;;;1.57;1.20;;;11.40;98.20;;;;;;5029445;28;20451;-77
2021/10/01 05:35:03;;;;;;;1.50;1.10;;;11.30;98.20;;;;;;5028327;28;20466;-75
2021/10/01 05:37:30;;;;;;;1.60;1.27;;;11.30;98.20;;;;;;5032272;28;20858;-78
2021/10/01 05:39:57;;;;;;;1.53;1.20;;;11.30;98.20;;;;;;5035449;28;20467;-75
2021/10/01 05:42:24;;;;;;;1.50;1.10;;;11.30;98.20;;;;;;5035487;28;20480;-76
2021/10/01 05:44:52;;;;;;;1.57;1.20;;;11.30;98.20;;;;;;5031310;28;20459;-77
2021/10/01 05:47:19;;;;;;;1.50;1.10;;;11.30;98.20;;;;;;5034343;28;20574;-75
2021/10/01 05:49:47;;;;;;;1.60;1.20;;;11.30;98.20;;;;;;5049611;28;20906;-77
2021/10/01 05:52:22;;;;;;;1.50;1.10;;;11.30;98.20;;;;;;5039312;28;20495;-77
2021/10/01 05:54:50;;;;;;;1.50;1.10;;;11.30;98.20;;;;;;5032960;28;20473;-75
2021/10/01 05:57:17;;;;;;;1.50;1.17;;;11.30;98.20;;;;;;5029073;28;20501;-76
2021/10/01 05:59:46;;;;;;;1.50;1.20;;;11.30;98.20;;;;;;5028143;28;20576;-78
2021/10/01 06:02:16;;;;;;;1.50;1.10;;;11.30;98.20;;;;;;5023652;28;21191;-77
2021/10/01 06:04:43;;;;;;;1.50;1.00;;;11.30;98.20;;;;;;5024072;28;20489;-77
2021/10/01 06:07:12;;;;;;;1.50;1.10;;;11.30;98.20;;;;;;5035439;28;20485;-77
2021/10/01 06:09:39;;;;;;;1.53;1.10;;;11.40;98.20;;;;;;5029820;28;20550;-76
2021/10/01 06:12:07;;;;;;;1.50;1.10;;;11.40;98.20;;;;;;5030899;28;20467;-76
2021/10/01 06:14:33;;;;;;;1.50;1.00;;;11.40;98.20;;;;;;5022635;28;20463;-75
2021/10/01 06:17:00;;;;;;;1.50;1.10;;;11.50;98.20;;;;;;5022297;28;20549;-76
2021/10/01 06:19:28;;;;;;;1.50;1.17;;;11.50;98.20;;;;;;5022876;28;20950;-75
2021/10/01 06:21:56;;;;;;;1.50;1.20;;;11.60;98.20;;;;;;5024303;28;21045;-76
2021/10/01 06:24:23;;;;;;;1.50;1.10;;;11.70;97.90;;;;;;5029907;28;20466;-75
2021/10/01 06:26:50;;;;;;;1.50;1.10;;;11.80;97.60;;;;;;5029852;28;20475;-78
2021/10/01 06:29:18;;;;;;;1.50;1.17;;;11.80;97.40;;;;;;5036089;28;20459;-77
2021/10/01 06:31:46;;;;;;;1.50;1.07;;;11.90;97.30;;;;;;5027975;28;20467;-76
2021/10/01 06:34:13;;;;;;;1.50;1.10;;;12.00;96.90;;;;;;5027782;28;21084;-76
2021/10/01 06:36:41;;;;;;;1.50;1.10;;;12.10;97.30;;;;;;5029368;28;20483;-77
2021/10/01 06:39:09;;;;;;;1.50;1.10;;;12.20;97.00;;;;;;5022949;28;20463;-77
2021/10/01 06:41:36;;;;;;;1.50;1.00;;;12.30;96.50;;;;;;5021701;28;20494;-76
2021/10/01 06:44:06;;;;;;;1.50;1.10;;;12.40;96.40;;;;;;5024838;28;20464;-78
2021/10/01 06:46:40;;;;;;;1.50;1.10;;;12.50;96.40;;;;;;5020581;28;20518;-78
2021/10/01 06:49:26;;;;;;;1.57;1.10;;;12.60;95.70;;;;;;5020474;28;20464;-79
2021/10/01 07:36:49;;;;;;;1.50;1.00;;;14.20;90.90;;;;;;5028308;28;21189;-77
2021/10/01 08:18:27;;;;;;;1.50;0.90;;;15.50;87.20;;;;;;4982496;28;20485;-78
2021/10/01 08:20:54;;;;;;;1.50;0.93;;;15.60;86.70;;;;;;5034781;28;20470;-79
2021/10/01 08:23:21;;;;;;;1.50;0.90;;;15.70;86.40;;;;;;5043056;28;20467;-81
2021/10/01 08:25:48;;;;;;;1.50;0.93;;;15.70;86.20;;;;;;5034867;28;20501;-82
2021/10/01 08:28:16;;;;;;;1.50;1.00;;;15.80;86.40;;;;;;5028227;28;20910;-77
2021/10/01 08:30:44;;;;;;;1.50;1.00;;;15.90;86.10;;;;;;5028656;28;20767;-79
2021/10/01 08:33:11;;;;;;;1.50;1.00;;;15.90;86.00;;;;;;5029600;28;20560;-78
2021/10/01 08:35:38;;;;;;;1.50;1.00;;;16.00;85.60;;;;;;5037254;28;20462;-79
2021/10/01 08:38:05;;;;;;;1.50;1.00;;;16.10;85.20;;;;;;5036007;28;21074;-79
2021/10/01 08:40:32;;;;;;;1.50;0.97;;;16.10;85.10;;;;;;5046622;28;20474;-78
2021/10/01 08:42:59;;;;;;;1.50;0.90;;;16.10;85.00;;;;;;5040505;28;20500;-75
2021/10/01 08:45:27;;;;;;;1.50;1.00;;;16.10;85.10;;;;;;5032560;28;20695;-76
2021/10/01 08:47:58;;;;;;;1.60;1.20;;;16.20;84.50;;;;;;5028109;28;20941;-77
2021/10/01 08:50:26;;;;;;;1.53;1.00;;;16.30;84.50;;;;;;5027428;28;21212;-75
2021/10/01 08:52:56;;;;;;;1.50;1.00;;;16.40;83.90;;;;;;5028988;28;20483;-76
2021/10/01 08:55:23;;;;;;;1.50;1.00;;;16.50;83.80;;;;;;5028991;28;20494;-76
2021/10/01 08:57:50;;;;;;;1.60;1.07;;;16.50;84.20;;;;;;5030607;28;21109;-77
2021/10/01 09:00:19;;;;;;;1.50;0.90;;;16.60;84.60;;;;;;5029524;28;20546;-75
2021/10/01 09:02:47;;;;;;;1.57;1.00;;;16.70;83.90;;;;;;5031019;28;20474;-74
2021/10/01 09:05:16;;;;;;;1.53;1.00;;;16.90;83.70;;;;;;5035370;28;20459;-76
2021/10/01 09:07:43;;;;;;;1.50;0.90;;;17.00;83.30;;;;;;5036425;28;20978;-75
2021/10/01 09:10:11;;;;;;;1.50;0.90;;;17.10;83.00;;;;;;5030196;28;20582;-75
2021/10/01 09:12:39;;;;;;;1.50;0.90;;;17.20;83.50;;;;;;5034587;28;20462;-74
2021/10/01 09:15:09;;;;;;;1.50;1.00;;;17.40;82.80;;;;;;5033669;28;20558;-75
2021/10/01 09:17:36;;;;;;;1.50;1.00;;;17.50;82.10;;;;;;5038977;28;20499;-74
2021/10/01 09:20:05;;;;;;;1.50;0.90;;;17.60;82.80;;;;;;5036584;28;20467;-74
2021/10/01 09:22:35;;;;;;;1.50;0.90;;;17.70;81.80;;;;;;5023136;28;21012;-74
2021/10/01 09:25:10;;;;;;;1.50;1.00;;;17.80;81.30;;;;;;5033772;28;20473;-76
2021/10/01 09:27:39;;;;;;;1.50;0.90;;;17.80;81.60;;;;;;5031493;28;20481;-76
2021/10/01 09:30:06;;;;;;;1.50;0.97;;;17.80;82.00;;;;;;5026967;28;20465;-75
2021/10/01 09:32:34;;;;;;;1.50;0.93;;;17.80;82.00;;;;;;5033242;28;20545;-76
2021/10/01 09:35:11;;;;;;;1.50;1.00;;;17.70;81.50;;;;;;5029623;28;20470;-76
2021/10/01 09:37:40;;;;;;;1.50;1.00;;;17.60;82.40;;;;;;5038210;28;20567;-75
2021/10/01 09:40:08;;;;;;;1.50;1.00;;;17.70;82.70;;;;;;5030043;28;20472;-76
2021/10/01 09:42:43;;;;;;;1.50;1.00;;;17.70;82.40;;;;;;5030437;28;20863;-76
2021/10/01 09:45:13;;;;;;;1.50;0.90;;;17.80;81.50;;;;;;5030938;28;20502;-76
2021/10/01 09:47:44;;;;;;;1.50;0.90;;;17.90;81.90;;;;;;5031516;28;20474;-76
2021/10/01 09:50:15;;;;;;;1.50;0.90;;;17.90;81.50;;;;;;5039683;28;20520;-77
2021/10/01 09:52:46;;;;;;;1.50;0.90;;;17.90;81.30;;;;;;5031752;28;20463;-78
2021/10/01 09:55:15;;;;;;;1.50;1.00;;;17.90;82.10;;;;;;5036271;28;20478;-75
2021/10/01 09:58:01;;;;;;;1.50;0.93;;;17.90;82.40;;;;;;5026505;28;20553;-76
2021/10/01 10:00:34;;;;;;;1.50;1.00;;;18.00;81.30;;;;;;5014740;28;20626;-76
2021/10/01 10:03:01;;;;;;;1.50;1.00;;;18.00;81.60;;;;;;5034323;28;20970;-75
2021/10/01 10:05:59;;;;;;;1.50;1.00;;;18.00;82.20;;;;;;5032035;28;20495;-76
2021/10/01 10:08:30;;;;;;;1.50;1.03;;;18.20;81.60;;;;;;5038196;28;20478;-74
2021/10/01 10:10:57;;;;;;;1.50;0.90;;;18.20;81.90;;;;;;5029824;28;20474;-76
2021/10/01 10:13:44;;;;;;;1.50;1.00;;;18.30;81.20;;;;;;5030545;28;20467;-77
2021/10/01 10:16:13;;;;;;;1.50;1.00;;;18.30;81.10;;;;;;5030081;28;20467;-76
2021/10/01 10:18:41;;;;;;;1.50;1.00;;;18.40;81.30;;;;;;5024887;28;20573;-77
2021/10/01 10:21:09;;;;;;;1.50;1.00;;;18.40;81.00;;;;;;5037051;28;20539;-78
2021/10/01 10:23:37;;;;;;;1.50;1.00;;;18.50;80.60;;;;;;5028280;28;20553;-76
2021/10/01 10:26:07;;;;;;;1.50;1.00;;;18.50;79.90;;;;;;5035371;28;20462;-77
2021/10/01 10:28:37;;;;;;;1.50;1.00;;;18.40;80.60;;;;;;5029036;28;20470;-75
2021/10/01 10:31:04;;;;;;;1.50;0.90;;;18.50;81.20;;;;;;5027975;28;20857;-76
2021/10/01 10:33:43;;;;;;;1.50;1.00;;;18.60;81.30;;;;;;5028160;28;20855;-75
2021/10/01 10:36:40;;;;;;;1.50;0.97;;;18.70;80.60;;;;;;5032347;28;20767;-77
2021/10/01 10:39:53;;;;;;;1.50;0.90;;;18.70;80.20;;;;;;5026672;28;20514;-76
2021/10/01 10:42:29;;;;;;;1.50;1.00;;;18.60;80.80;;;;;;5020193;28;21041;-76
2021/10/01 10:44:58;;;;;;;1.50;0.90;;;18.60;81.30;;;;;;5019082;28;20473;-77
2021/10/01 10:47:43;;;;;;;3.07;1.80;;;18.50;80.60;;;;;;5023948;28;20475;-77
2021/10/01 10:50:38;;;;;;;1.50;1.00;;;18.50;80.50;;;;;;5027583;28;20950;-74
2021/10/01 10:53:28;;;;;;;1.50;0.90;;;18.60;80.00;;;;;;5025811;28;20471;-75
2021/10/01 10:56:15;;;;;;;1.50;1.00;;;18.70;80.40;;;;;;5023034;28;20544;-76
2021/10/01 10:58:50;;;;;;;1.50;0.90;;;18.90;80.50;;;;;;5024225;28;20487;-76
2021/10/01 11:01:34;;;;;;;1.50;0.90;;;19.10;80.00;;;;;;5021969;28;20513;-75
2021/10/01 11:04:30;;;;;;;1.50;1.00;;;19.10;78.80;;;;;;5015128;28;20796;-77
2021/10/01 11:06:57;;;;;;;1.50;0.90;;;19.10;78.50;;;;;;5025880;28;20821;-77
2021/10/01 11:09:29;;;;;;;1.50;0.90;;;19.10;78.80;;;;;;5029564;28;20458;-76
2021/10/01 11:11:59;;;;;;;1.50;0.90;;;19.30;79.30;;;;;;5025934;28;20471;-76
2021/10/01 11:14:29;;;;;;;1.50;0.93;;;19.30;78.60;;;;;;5022655;28;20471;-76
2021/10/01 11:17:20;;;;;;;1.50;0.90;;;19.30;78.60;;;;;;5021500;28;20491;-75
2021/10/01 11:19:53;;;;;;;1.60;1.13;;;19.30;78.20;;;;;;5020740;28;20495;-77
2021/10/01 11:22:28;;;;;;;1.50;0.90;;;19.20;78.30;;;;;;5030121;28;20471;-78
2021/10/01 11:25:01;;;;;;;1.50;0.93;;;19.30;78.50;;;;;;5028643;28;20863;-76
2021/10/01 11:27:28;;;;;;;1.50;0.90;;;19.30;79.00;;;;;;5036204;28;21013;-76
2021/10/01 11:29:57;;;;;;;1.50;0.90;;;19.30;78.50;;;;;;5026223;28;20490;-77
2021/10/01 11:32:26;;;;;;;1.47;0.90;;;19.30;79.00;;;;;;5028717;28;20573;-75
2021/10/01 11:34:55;;;;;;;1.50;0.90;;;19.40;79.40;;;;;;5026163;28;20463;-76
2021/10/01 11:37:23;;;;;;;1.50;0.90;;;19.50;78.70;;;;;;5028137;28;20482;-76
2021/10/01 11:39:50;;;;;;;1.50;0.90;;;19.60;78.40;;;;;;5021743;28;20498;-76
2021/10/01 11:42:25;;;;;;;1.50;0.97;;;19.60;78.20;;;;;;5023786;28;20464;-76
2021/10/01 11:44:52;;;;;;;4.63;2.50;;;19.60;77.80;;;;;;5030576;28;21229;-76
2021/10/01 11:47:21;;;;;;;1.50;0.90;;;19.70;78.10;;;;;;5023968;28;20486;-77
2021/10/01 11:49:56;;;;;;;1.50;0.90;;;19.80;77.20;;;;;;5028913;28;20463;-77
2021/10/01 11:52:23;;;;;;;1.50;0.90;;;19.80;77.40;;;;;;5021692;28;20467;-77
2021/10/01 11:54:52;;;;;;;1.50;0.90;;;19.90;76.50;;;;;;5028945;28;20943;-77
2021/10/01 11:57:18;;;;;;;2.27;1.63;;;19.90;75.60;;;;;;5031707;28;20865;-81
2021/10/01 11:59:54;;;;;;;1.50;0.90;;;19.90;76.60;;;;;;5034392;28;20526;-78
2021/10/01 12:02:32;;;;;;;1.50;0.90;;;19.90;76.40;;;;;;5033778;28;20489;-78
2021/10/01 12:04:59;;;;;;;1.50;0.90;;;20.10;77.80;;;;;;5035956;28;21032;-78
2021/10/01 12:07:26;;;;;;;1.50;0.90;;;20.20;77.70;;;;;;5030338;28;21056;-77
2021/10/01 12:10:06;;;;;;;1.50;1.00;;;20.20;76.40;;;;;;5035609;28;20459;-78
2021/10/01 12:12:33;;;;;;;1.50;0.90;;;20.30;76.00;;;;;;5043483;28;20472;-79
2021/10/01 12:15:00;;;;;;;1.50;0.90;;;20.20;75.50;;;;;;5038012;28;20471;-77
2021/10/01 12:17:37;;;;;;;1.50;0.90;;;20.00;74.90;;;;;;5044563;28;20486;-79
2021/10/01 12:20:04;;;;;;;1.50;1.00;;;19.80;75.50;;;;;;5019078;28;20494;-77
2021/10/01 12:22:34;;;;;;;1.50;1.00;;;19.60;75.30;;;;;;5027715;28;21025;-79
2021/10/01 12:25:02;;;;;;;1.50;0.93;;;19.50;76.10;;;;;;5033586;28;20489;-78
2021/10/01 12:27:39;;;;;;;1.50;1.00;;;19.40;77.10;;;;;;5021833;28;20482;-78
2021/10/01 12:30:07;;;;;;;1.47;0.93;;;19.40;77.40;;;;;;5033766;28;20945;-77
2021/10/01 12:32:36;;;;;;;1.50;0.90;;;19.40;77.50;;;;;;5040306;28;20465;-80
2021/10/01 12:35:06;;;;;;;1.50;0.90;;;19.50;77.70;;;;;;5036960;28;20466;-78
2021/10/01 12:37:40;;;;;;;1.50;0.90;;;19.60;78.40;;;;;;5030658;28;20479;-79
2021/10/01 12:40:10;;;;;;;1.50;0.80;;;19.80;78.00;;;;;;5023640;28;20493;-78
2021/10/01 12:42:38;;;;;;;1.50;0.90;;;20.10;77.10;;;;;;5026166;28;20788;-76
2021/10/01 12:45:07;;;;;;;1.50;0.90;;;20.20;76.00;;;;;;5030037;28;20831;-79
2021/10/01 12:47:38;;;;;;;1.50;0.90;;;20.20;76.90;;;;;;5027560;28;20508;-77
2021/10/01 12:50:07;;;;;;;1.50;0.90;;;20.30;76.60;;;;;;5029452;28;20463;-76
2021/10/01 12:52:36;;;;;;;1.50;0.90;;;20.40;75.20;;;;;;5026643;28;20467;-75
2021/10/01 12:55:06;;;;;;;1.50;0.90;;;20.30;75.40;;;;;;5026691;28;20483;-76
2021/10/01 12:57:36;;;;;;;1.47;0.90;;;20.30;74.70;;;;;;5027076;28;21045;-76
2021/10/01 13:00:12;;;;;;;1.50;0.90;;;20.30;75.40;;;;;;5021513;28;20659;-75
2021/10/01 13:02:42;;;;;;;1.43;0.90;;;20.40;76.00;;;;;;5023486;28;20472;-75
2021/10/01 13:05:10;;;;;;;1.47;0.90;;;20.50;76.40;;;;;;5025626;28;20945;-75
2021/10/01 13:07:39;;;;;;;1.50;0.90;;;20.70;75.30;;;;;;5028310;28;20483;-75
2021/10/01 13:10:21;;;;;;;1.50;0.90;;;20.80;76.50;;;;;;5038056;28;20993;-74
2021/10/01 13:12:51;;;;;;;1.50;0.90;;;20.90;75.80;;;;;;5028862;28;20463;-74
2021/10/01 13:15:24;;;;;;;1.50;0.93;;;21.00;75.10;;;;;;5021237;28;20475;-74
2021/10/01 13:18:05;;;;;;;1.50;0.90;;;21.10;74.50;;;;;;5025260;28;20479;-75
2021/10/01 13:20:34;;;;;;;1.50;0.90;;;21.20;74.00;;;;;;5028872;28;20492;-75
2021/10/01 13:23:03;;;;;;;1.50;0.90;;;21.20;73.10;;;;;;5039469;28;20462;-75
2021/10/01 13:25:32;;;;;;;1.50;0.90;;;21.30;72.90;;;;;;5036289;28;20467;-74
2021/10/01 13:28:01;;;;;;;1.50;0.90;;;21.30;73.60;;;;;;5023686;28;20498;-76
2021/10/01 13:30:28;;;;;;;1.47;0.90;;;21.40;71.80;;;;;;5026977;28;20470;-75
2021/10/01 13:32:58;;;;;;;1.50;0.90;;;21.50;70.20;;;;;;5020706;28;20467;-74
2021/10/01 13:35:26;;;;;;;1.47;0.90;;;21.40;70.50;;;;;;5021599;28;20487;-79
2021/10/01 13:37:53;;;;;;;1.50;0.90;;;21.30;70.60;;;;;;5022030;28;20494;-77
2021/10/01 13:40:20;;;;;;;1.50;0.90;;;21.20;70.70;;;;;;5024023;28;20487;-76
2021/10/01 13:42:47;;;;;;;1.47;0.90;;;21.10;70.60;;;;;;5032567;28;20467;-79
2021/10/01 13:45:14;;;;;;;1.50;0.90;;;21.10;71.10;;;;;;5031024;28;20469;-75
2021/10/01 13:47:41;;;;;;;1.50;1.00;;;21.00;70.40;;;;;;5025418;28;20494;-78
2021/10/01 13:50:10;;;;;;;1.50;0.90;;;20.90;70.80;;;;;;5024244;28;21029;-77
2021/10/01 13:52:39;;;;;;;1.50;0.90;;;20.80;71.00;;;;;;5039442;28;20473;-77
2021/10/01 13:55:07;;;;;;;2.53;2.03;;;20.90;71.60;;;;;;5038956;28;20466;-76
2021/10/01 13:57:34;;;;;;;1.50;0.90;;;20.90;71.30;;;;;;5020986;28;21002;-76
2021/10/01 14:00:01;;;;;;;1.43;0.90;;;20.90;71.80;;;;;;5021521;28;20487;-77
2021/10/01 14:02:28;;;;;;;1.47;0.90;;;20.80;70.80;;;;;;5030191;28;20458;-77
2021/10/01 14:04:55;;;;;;;1.50;0.90;;;20.80;70.60;;;;;;5031947;28;20476;-76
2021/10/01 14:07:22;;;;;;;1.50;1.00;;;20.70;70.50;;;;;;5029202;28;20593;-77
2021/10/01 14:09:51;;;;;;;1.50;0.90;;;20.70;70.80;;;;;;5026689;28;20463;-78
2021/10/01 14:12:18;;;;;;;1.50;0.90;;;20.60;70.60;;;;;;5034844;28;20590;-76
2021/10/01 14:14:45;;;;;;;1.50;0.90;;;20.60;71.00;;;;;;5023687;28;20463;-77
2021/10/01 14:17:11;;;;;;;1.50;0.90;;;20.60;71.00;;;;;;5020348;28;20490;-77
2021/10/01 14:19:38;;;;;;;1.50;0.90;;;20.60;71.20;;;;;;5023102;28;20797;-76
2021/10/01 14:22:05;;;;;;;1.50;0.90;;;20.60;71.30;;;;;;5031018;28;20467;-76
2021/10/01 14:24:33;;;;;;;1.47;0.90;;;20.70;71.20;;;;;;5028305;28;20998;-76
2021/10/01 14:27:01;;;;;;;1.50;0.90;;;20.70;71.60;;;;;;5016253;28;20483;-77